createdAt,value
2023-02-03T00:00:53.078Z,101098.13
2023-02-03T00:03:55.555Z,101105.19
2023-02-03T00:06:57.719Z,101110.66
2023-02-03T00:10:00.273Z,101113.19
2023-02-03T00:13:02.593Z,101115.66
2023-02-03T00:16:06.645Z,101118.69
2023-02-03T00:19:08.828Z,101128.69
2023-02-03T00:22:11.262Z,101134.87
2023-02-03T00:25:13.387Z,101136.25
2023-02-03T00:28:15.859Z,101142.06
2023-02-03T00:31:23.821Z,101150.75
2023-02-03T00:34:30.408Z,101154.50
2023-02-03T00:37:32.526Z,101160.66
2023-02-03T00:40:36.026Z,101152.81
2023-02-03T00:43:38.143Z,101157.84
2023-02-03T00:46:40.815Z,101169.47
2023-02-03T00:49:43.020Z,101166.13
2023-02-03T00:52:45.476Z,101177.59
2023-02-03T00:55:47.705Z,101180.47
2023-02-03T00:58:50.205Z,101179.31
2023-02-03T01:01:52.444Z,101186.06
2023-02-03T01:04:54.974Z,101188.34
2023-02-03T01:07:57.104Z,101197.72
2023-02-03T01:10:59.536Z,101199.28
2023-02-03T01:14:01.876Z,101201.38
2023-02-03T01:17:05.070Z,101215.53
2023-02-03T01:20:07.685Z,101218.12
2023-02-03T01:23:10.292Z,101222.12
2023-02-03T01:26:15.973Z,101215.88
2023-02-03T01:29:18.706Z,101229.25
2023-02-03T01:32:20.895Z,101224.06
2023-02-03T01:35:23.410Z,101219.94
2023-02-03T01:38:25.569Z,101223.66
2023-02-03T01:41:35.491Z,101228.59
2023-02-03T01:44:45.002Z,101221.69
2023-02-03T01:47:52.705Z,101231.34
2023-02-03T01:50:54.916Z,101227.91
2023-02-03T01:53:58.512Z,101226.75
2023-02-03T01:57:05.781Z,101240.34
2023-02-03T02:00:09.689Z,101243.09
2023-02-03T02:03:16.635Z,101234.03
2023-02-03T02:06:19.128Z,101232.66
2023-02-03T02:09:21.645Z,101238.72
2023-02-03T02:12:24.089Z,101231.84
2023-02-03T02:15:56.881Z,101231.62
2023-02-03T02:19:05.157Z,101226.25
2023-02-03T02:22:15.963Z,101222.78
2023-02-03T02:25:38.928Z,101219.03
2023-02-03T02:28:56.103Z,101226.19
2023-02-03T02:32:10.958Z,101230.72
2023-02-03T02:35:27.047Z,101221.00
2023-02-03T02:39:01.949Z,101229.09
2023-02-03T02:42:07.142Z,101224.72
2023-02-03T02:45:20.415Z,101227.44
2023-02-03T02:48:28.642Z,101235.44
2023-02-03T02:51:33.079Z,101231.62
2023-02-03T02:54:40.919Z,101228.16
2023-02-03T02:57:46.864Z,101236.03
2023-02-03T03:00:49.421Z,101240.56
2023-02-03T03:03:52.141Z,101243.09
2023-02-03T03:07:01.580Z,101240.41
2023-02-03T03:10:10.990Z,101241.09
2023-02-03T03:13:22.596Z,101242.91
2023-02-03T03:16:27.472Z,101248.59
2023-02-03T03:19:41.507Z,101234.47
2023-02-03T03:22:49.012Z,101238.84
2023-02-03T03:26:02.311Z,101232.66
2023-02-03T03:29:12.375Z,101238.84
2023-02-03T03:32:15.108Z,101226.56
2023-02-03T03:35:17.840Z,101229.94
2023-02-03T03:38:42.572Z,101238.47
2023-02-03T03:42:16.116Z,101227.31
2023-02-03T03:45:38.926Z,101240.66
2023-02-03T03:49:01.576Z,101234.53
2023-02-03T03:52:09.513Z,101243.47
2023-02-03T03:55:14.667Z,101238.62
2023-02-03T03:58:26.423Z,101243.31
2023-02-03T04:01:30.435Z,101240.44
2023-02-03T04:04:35.578Z,101222.72
2023-02-03T04:07:46.014Z,101222.69
2023-02-03T04:10:48.452Z,101218.41
2023-02-03T04:13:50.591Z,101220.34
2023-02-03T04:16:53.174Z,101220.91
2023-02-03T04:19:55.306Z,101212.19
2023-02-03T04:22:58.455Z,101208.47
2023-02-03T04:26:01.223Z,101198.66
2023-02-03T04:29:03.802Z,101206.72
2023-02-03T04:32:05.973Z,101188.44
2023-02-03T04:35:08.648Z,101197.62
2023-02-03T04:38:10.776Z,101186.28
2023-02-03T04:41:13.245Z,101194.88
2023-02-03T04:44:15.398Z,101198.59
2023-02-03T04:47:19.098Z,101215.94
2023-02-03T04:50:21.418Z,101209.66
2023-02-03T04:53:23.844Z,101200.00
2023-02-03T04:56:26.023Z,101195.31
2023-02-03T04:59:28.473Z,101195.28
2023-02-03T05:02:30.628Z,101197.66
2023-02-03T05:05:33.117Z,101196.97
2023-02-03T05:08:35.268Z,101187.22
2023-02-03T05:11:37.932Z,101192.34
2023-02-03T05:14:40.101Z,101185.59
2023-02-03T05:17:42.607Z,101197.47
2023-02-03T05:20:44.727Z,101189.66
2023-02-03T05:23:47.379Z,101201.25
2023-02-03T05:26:49.552Z,101202.19
2023-02-03T05:29:51.948Z,101202.34
2023-02-03T05:32:54.111Z,101212.59
2023-02-03T05:35:56.757Z,101210.84
2023-02-03T05:38:58.989Z,101213.34
2023-02-03T05:42:03.248Z,101207.19
2023-02-03T05:45:05.767Z,101206.94
2023-02-03T05:48:08.583Z,101208.75
2023-02-03T05:51:10.778Z,101209.56
2023-02-03T05:54:13.421Z,101206.19
2023-02-03T05:57:15.531Z,101207.06
2023-02-03T06:00:18.375Z,101208.59
2023-02-03T06:03:20.879Z,101212.22
2023-02-03T06:06:23.344Z,101217.25
2023-02-03T06:09:25.953Z,101203.31
2023-02-03T06:12:29.361Z,101192.87
2023-02-03T06:15:31.984Z,101193.78
2023-02-03T06:18:34.191Z,101196.28
2023-02-03T06:21:36.700Z,101195.38
2023-02-03T06:24:38.821Z,101200.47
2023-02-03T06:27:41.542Z,101207.66
2023-02-03T06:30:43.938Z,101220.69
2023-02-03T06:33:46.940Z,101223.13
2023-02-03T06:36:49.196Z,101227.66
2023-02-03T06:39:51.727Z,101230.25
2023-02-03T06:42:53.877Z,101236.25
2023-02-03T06:45:56.375Z,101248.47
2023-02-03T06:48:58.629Z,101245.81
2023-02-03T06:52:01.215Z,101244.03
2023-02-03T06:55:04.690Z,101235.16
2023-02-03T06:58:07.181Z,101237.66
2023-02-03T07:01:09.394Z,101228.94
2023-02-03T07:04:12.352Z,101231.22
2023-02-03T07:07:14.768Z,101227.69
2023-02-03T07:10:17.389Z,101221.41
2023-02-03T07:13:19.521Z,101217.81
2023-02-03T07:16:22.113Z,101224.63
2023-02-03T07:19:24.239Z,101213.97
2023-02-03T07:22:26.775Z,101214.16
2023-02-03T07:25:29.148Z,101217.50
2023-02-03T07:28:32.723Z,101210.25
2023-02-03T07:31:35.837Z,101210.84
2023-02-03T07:34:38.863Z,101207.03
2023-02-03T07:37:42.495Z,101217.59
2023-02-03T07:40:44.931Z,101224.34
2023-02-03T07:43:47.263Z,101230.72
2023-02-03T07:46:49.817Z,101241.19
2023-02-03T07:49:52.405Z,101242.94
2023-02-03T07:52:55.671Z,101242.66
2023-02-03T07:56:02.638Z,101240.53
2023-02-03T07:59:05.290Z,101243.87
2023-02-03T08:02:11.230Z,101248.06
2023-02-03T08:05:14.959Z,101243.03
2023-02-03T08:08:17.166Z,101249.12
2023-02-03T08:11:19.685Z,101250.22
2023-02-03T08:14:21.802Z,101240.84
2023-02-03T08:17:25.627Z,101241.03
2023-02-03T08:20:28.084Z,101238.84
2023-02-03T08:23:31.349Z,101249.34
2023-02-03T08:26:33.494Z,101246.00
2023-02-03T08:29:35.915Z,101236.31
2023-02-03T08:32:38.166Z,101237.44
2023-02-03T08:35:40.965Z,101245.50
2023-02-03T08:38:44.327Z,101252.56
2023-02-03T08:41:46.677Z,101258.25
2023-02-03T08:44:49.273Z,101258.41
2023-02-03T08:47:51.773Z,101258.69
2023-02-03T08:50:54.136Z,101258.22
2023-02-03T08:53:56.675Z,101264.50
2023-02-03T08:56:59.640Z,101265.69
2023-02-03T09:00:02.406Z,101268.97
2023-02-03T09:03:04.727Z,101264.91
2023-02-03T09:06:09.249Z,101269.31
2023-02-03T09:09:11.445Z,101266.88
2023-02-03T09:12:14.485Z,101279.03
2023-02-03T09:15:16.859Z,101272.66
2023-02-03T09:18:19.645Z,101279.56
2023-02-03T09:21:36.274Z,101275.56
2023-02-03T09:24:44.365Z,101277.78
2023-02-03T09:27:46.616Z,101278.13
2023-02-03T09:30:49.223Z,101266.84
2023-02-03T09:33:51.451Z,101270.84
2023-02-03T09:36:53.848Z,101265.19
2023-02-03T09:39:58.329Z,101258.50
2023-02-03T09:43:12.708Z,101252.53
2023-02-03T09:46:25.445Z,101240.66
2023-02-03T09:49:38.905Z,101238.59
2023-02-03T09:52:42.291Z,101231.66
2023-02-03T09:55:47.346Z,101214.13
2023-02-03T09:58:49.579Z,101202.56
2023-02-03T10:02:20.537Z,101196.66
2023-02-03T10:05:31.114Z,101189.16
2023-02-03T10:08:59.579Z,101180.03
2023-02-03T10:12:10.873Z,101176.44
2023-02-03T10:15:31.193Z,101170.09
2023-02-03T10:18:46.102Z,101155.31
2023-02-03T10:21:58.493Z,101151.84
2023-02-03T10:25:07.297Z,101149.37
2023-02-03T10:28:16.970Z,101137.81
2023-02-03T10:31:23.212Z,101119.62
2023-02-03T10:34:26.256Z,101114.78
2023-02-03T10:37:38.770Z,101114.22
2023-02-03T10:40:40.952Z,101105.41
2023-02-03T10:43:51.703Z,101110.94
2023-02-03T10:46:54.060Z,101101.25
2023-02-03T10:49:58.749Z,101088.22
2023-02-03T10:53:19.630Z,101085.13
2023-02-03T10:56:29.611Z,101084.06
2023-02-03T10:59:35.606Z,101073.84
2023-02-03T11:02:38.258Z,101063.72
2023-02-03T11:05:43.114Z,101063.25
2023-02-03T11:08:50.635Z,101056.44
2023-02-03T11:12:13.384Z,101039.97
2023-02-03T11:15:15.806Z,101026.09
2023-02-03T11:18:41.850Z,101022.56
2023-02-03T11:21:48.189Z,101019.09
2023-02-03T11:24:50.420Z,101011.44
2023-02-03T11:27:55.835Z,101008.84
2023-02-03T11:30:59.028Z,101013.16
2023-02-03T11:34:05.368Z,100975.25
2023-02-03T11:37:37.189Z,100999.59
2023-02-03T11:40:41.396Z,100982.22
2023-02-03T11:43:44.311Z,100987.47
2023-02-03T11:46:53.915Z,100976.34
2023-02-03T11:50:07.751Z,100966.09
2023-02-03T11:53:27.510Z,100958.31
2023-02-03T11:56:54.697Z,100943.16
2023-02-03T12:00:13.111Z,100929.28
2023-02-03T12:03:30.854Z,100920.06
2023-02-03T12:06:41.576Z,100920.09
2023-02-03T12:10:05.839Z,100914.00
2023-02-03T12:13:12.276Z,100901.78
2023-02-03T12:16:29.499Z,100887.78
2023-02-03T12:19:50.726Z,100879.25
2023-02-03T12:23:12.325Z,100876.25
2023-02-03T12:26:20.438Z,100866.75
2023-02-03T12:29:37.007Z,100862.75
2023-02-03T12:32:59.648Z,100845.25
2023-02-03T12:36:21.410Z,100841.16
2023-02-03T12:39:33.744Z,100819.63
2023-02-03T12:42:56.111Z,100796.09
2023-02-03T12:46:07.730Z,100802.06
2023-02-03T12:49:44.772Z,100788.09
2023-02-03T12:53:02.057Z,100781.78
2023-02-03T12:56:11.963Z,100771.28
2023-02-03T12:59:23.282Z,100765.13
2023-02-03T13:02:30.752Z,100760.91
2023-02-03T13:05:37.382Z,100745.94
2023-02-03T13:09:14.077Z,100738.44
2023-02-03T13:12:28.970Z,100729.00
2023-02-03T13:15:37.846Z,100724.22
2023-02-03T13:18:44.424Z,100724.56
2023-02-03T13:21:50.505Z,100717.44
2023-02-03T13:25:02.097Z,100704.84
2023-02-03T13:28:29.040Z,100693.41
2023-02-03T13:31:34.460Z,100691.22
2023-02-03T13:34:46.329Z,100671.19
2023-02-03T13:38:16.162Z,100665.47
2023-02-03T13:41:42.781Z,100665.28
2023-02-03T13:44:51.516Z,100661.78
2023-02-03T13:47:59.569Z,100653.97
2023-02-03T13:51:26.121Z,100636.41
2023-02-03T13:54:34.068Z,100634.50
2023-02-03T13:57:38.736Z,100627.19
2023-02-03T14:00:43.915Z,100616.00
2023-02-03T14:03:47.654Z,100614.00
2023-02-03T14:06:49.731Z,100615.59
2023-02-03T14:10:20.160Z,100601.34
2023-02-03T14:13:22.747Z,100605.72
2023-02-03T14:16:25.864Z,100595.19
2023-02-03T14:19:27.967Z,100595.38
2023-02-03T14:22:31.572Z,100589.19
2023-02-03T14:25:46.713Z,100585.87
2023-02-03T14:28:52.125Z,100575.81
2023-02-03T14:32:01.763Z,100569.88
2023-02-03T14:35:17.143Z,100574.50
2023-02-03T14:38:19.328Z,100579.53
2023-02-03T14:41:45.135Z,100573.34
2023-02-03T14:44:59.295Z,100561.69
2023-02-03T14:48:10.597Z,100556.47
2023-02-03T14:51:38.115Z,100546.03
2023-02-03T14:54:52.391Z,100534.78
2023-02-03T14:58:02.794Z,100532.91
2023-02-03T15:01:07.252Z,100536.31
2023-02-03T15:04:12.420Z,100532.66
2023-02-03T15:07:34.864Z,100523.97
2023-02-03T15:10:40.012Z,100510.34
2023-02-03T15:13:42.476Z,100507.31
2023-02-03T15:16:45.181Z,100500.31
2023-02-03T15:19:47.593Z,100493.19
2023-02-03T15:22:49.748Z,100489.81
2023-02-03T15:26:11.017Z,100480.19
2023-02-03T15:29:24.725Z,100481.13
2023-02-03T15:32:41.351Z,100475.94
2023-02-03T15:35:47.806Z,100456.69
2023-02-03T15:38:58.467Z,100464.53
2023-02-03T15:42:02.146Z,100453.00
2023-02-03T15:45:04.563Z,100458.91
2023-02-03T15:48:17.711Z,100457.00
2023-02-03T15:51:36.183Z,100452.62
2023-02-03T15:54:43.210Z,100449.59
2023-02-03T15:57:49.090Z,100435.00
2023-02-03T16:00:55.646Z,100440.91
2023-02-03T16:03:59.195Z,100441.75
2023-02-03T16:07:01.504Z,100432.25
2023-02-03T16:10:04.304Z,100435.78
2023-02-03T16:13:24.887Z,100436.69
2023-02-03T16:16:38.343Z,100435.78
2023-02-03T16:19:43.723Z,100427.81
2023-02-03T16:23:04.847Z,100421.81
2023-02-03T16:26:18.612Z,100410.56
2023-02-03T16:29:39.756Z,100407.03
2023-02-03T16:33:00.568Z,100387.38
2023-02-03T16:36:30.533Z,100389.87
2023-02-03T16:39:51.379Z,100383.06
2023-02-03T16:43:12.355Z,100377.06
2023-02-03T16:46:33.318Z,100372.06
2023-02-03T16:49:54.082Z,100371.16
2023-02-03T16:52:56.210Z,100354.50
2023-02-03T16:56:01.355Z,100357.00
2023-02-03T16:59:03.529Z,100339.44
2023-02-03T17:02:06.008Z,100321.91
2023-02-03T17:05:08.202Z,100320.16
2023-02-03T17:08:10.755Z,100308.72
2023-02-03T17:11:19.515Z,100287.69
2023-02-03T17:14:22.073Z,100279.47
2023-02-03T17:17:24.284Z,100276.00
2023-02-03T17:20:26.837Z,100263.78
2023-02-03T17:23:28.967Z,100274.13
2023-02-03T17:26:31.556Z,100267.19
2023-02-03T17:29:33.723Z,100259.81
2023-02-03T17:32:36.173Z,100264.06
2023-02-03T17:35:43.236Z,100246.25
2023-02-03T17:55:41.962Z,100224.28
2023-02-03T17:58:45.260Z,100227.63
2023-02-03T18:01:47.596Z,100211.28
2023-02-03T18:04:50.079Z,100221.72
2023-02-03T18:07:52.300Z,100214.34
2023-02-03T18:10:55.303Z,100209.87
2023-02-03T18:13:57.753Z,100195.47
2023-02-03T18:17:00.423Z,100194.44
2023-02-03T18:20:03.925Z,100183.91
2023-02-03T18:23:06.418Z,100179.94
2023-02-03T18:26:11.119Z,100177.47
2023-02-03T18:29:14.034Z,100164.88
2023-02-03T18:32:16.840Z,100174.69
2023-02-03T18:35:19.415Z,100169.16
2023-02-03T18:38:21.579Z,100151.03
2023-02-03T18:41:25.368Z,100139.28
2023-02-03T18:44:27.592Z,100144.16
2023-02-03T18:47:30.245Z,100146.41
2023-02-03T18:50:32.749Z,100147.62
2023-02-03T18:53:36.047Z,100156.81
2023-02-03T18:56:38.397Z,100168.28
2023-02-03T18:59:41.254Z,100161.03
2023-02-03T19:02:43.410Z,100168.69
2023-02-03T19:05:45.967Z,100171.31
2023-02-03T19:08:48.897Z,100181.56
2023-02-03T19:11:51.599Z,100186.72
2023-02-03T19:14:53.916Z,100173.63
2023-02-03T19:17:56.377Z,100168.06
2023-02-03T19:20:58.608Z,100157.84
2023-02-03T19:24:01.325Z,100156.97
2023-02-03T19:27:03.635Z,100137.78
2023-02-03T19:30:06.364Z,100135.09
2023-02-03T19:33:08.479Z,100142.22
2023-02-03T19:36:11.814Z,100151.78
2023-02-03T19:39:14.765Z,100158.56
2023-02-03T19:42:18.043Z,100158.75
2023-02-03T19:45:20.305Z,100118.41
2023-02-03T19:48:22.744Z,100126.13
2023-02-03T19:51:24.918Z,100132.97
2023-02-03T19:54:27.379Z,100140.91
2023-02-03T19:57:29.714Z,100132.69
2023-02-03T20:00:32.174Z,100122.72
2023-02-03T20:03:34.819Z,100144.94
2023-02-03T20:06:37.066Z,100140.94
2023-02-03T20:09:39.902Z,100169.56
2023-02-03T20:12:42.020Z,100150.25
2023-02-03T20:15:47.461Z,100151.09
2023-02-03T20:18:49.841Z,100149.69
2023-02-03T20:21:52.339Z,100150.75
2023-02-03T20:24:54.673Z,100138.38
2023-02-03T20:27:58.215Z,100138.25
2023-02-03T20:31:02.221Z,100141.63
2023-02-03T20:34:04.803Z,100142.25
2023-02-03T20:37:07.992Z,100141.63
2023-02-03T20:40:16.122Z,100132.72
2023-02-03T20:43:23.729Z,100114.75
2023-02-03T20:46:26.233Z,100116.16
2023-02-03T20:49:28.530Z,100114.69
2023-02-03T20:52:31.028Z,100104.34
2023-02-03T20:55:36.283Z,100103.53
2023-02-03T20:58:40.857Z,100087.34
2023-02-03T21:01:43.586Z,100089.69
2023-02-03T21:04:57.922Z,100073.50
2023-02-03T21:08:00.160Z,100075.81
2023-02-03T21:11:09.404Z,100102.78
2023-02-03T21:14:24.001Z,100096.38
2023-02-03T21:17:27.331Z,100110.88
2023-02-03T21:20:32.098Z,100118.50
2023-02-03T21:23:42.733Z,100106.88
2023-02-03T21:26:45.234Z,100116.34
2023-02-03T21:29:47.777Z,100107.09
2023-02-03T21:32:49.952Z,100116.50
2023-02-03T21:35:52.413Z,100118.13
2023-02-03T21:38:57.231Z,100123.13
2023-02-03T21:42:40.936Z,100144.19
2023-02-03T21:45:43.807Z,100131.13
2023-02-03T21:48:50.645Z,100133.75
2023-02-03T21:51:53.288Z,100147.69
2023-02-03T21:54:55.758Z,100145.72
2023-02-03T21:57:57.906Z,100146.22
2023-02-03T22:01:03.647Z,100135.69
2023-02-03T22:04:06.604Z,100134.78
2023-02-03T22:07:14.876Z,100115.63
2023-02-03T22:10:17.469Z,100125.03
2023-02-03T22:13:20.185Z,100151.47
2023-02-03T22:16:23.086Z,100164.44
2023-02-03T22:19:25.634Z,100158.34
2023-02-03T22:22:28.785Z,100158.78
2023-02-03T22:25:31.016Z,100159.09
2023-02-03T22:28:33.660Z,100172.06
2023-02-03T22:31:35.866Z,100168.06
2023-02-03T22:34:38.379Z,100170.69
2023-02-03T22:37:40.565Z,100178.31
2023-02-03T22:40:43.183Z,100175.91
2023-02-03T22:43:45.463Z,100181.16
2023-02-03T22:46:47.891Z,100185.94
2023-02-03T22:49:50.499Z,100195.66
2023-02-03T22:52:54.265Z,100219.25
2023-02-03T22:55:56.424Z,100216.56
2023-02-03T22:58:58.939Z,100218.34
2023-02-03T23:02:01.170Z,100207.31
2023-02-03T23:05:04.013Z,100198.66
2023-02-03T23:08:06.205Z,100196.66
2023-02-03T23:11:08.636Z,100196.66
2023-02-03T23:14:11.335Z,100196.13
2023-02-03T23:17:13.748Z,100194.28
2023-02-03T23:20:17.067Z,100187.09
2023-02-03T23:23:19.407Z,100179.66
2023-02-03T23:26:21.547Z,100179.69
2023-02-03T23:29:24.036Z,100171.38
2023-02-03T23:32:26.227Z,100167.22
2023-02-03T23:35:46.816Z,100164.66
2023-02-03T23:38:48.947Z,100165.50
2023-02-03T23:41:51.374Z,100164.91
2023-02-03T23:44:53.490Z,100155.00
2023-02-03T23:47:56.025Z,100161.53
2023-02-03T23:50:58.190Z,100162.13
2023-02-03T23:54:00.676Z,100157.47
2023-02-03T23:57:04.762Z,100156.97
